createdAt,value
2017-04-10T00:00:24.962Z,8.66
2017-04-10T00:01:24.707Z,9.36
2017-04-10T00:02:24.491Z,8.66
2017-04-10T00:03:24.214Z,8.53
2017-04-10T00:04:23.925Z,8.53
2017-04-10T00:05:23.675Z,9.13
2017-04-10T00:06:23.414Z,9.29
2017-04-10T00:07:23.162Z,9.37
2017-04-10T00:08:24.843Z,9.04
2017-04-10T00:09:24.615Z,8.63
2017-04-10T00:10:24.369Z,9.69
2017-04-10T00:11:25.286Z,8.73
2017-04-10T00:12:24.979Z,8.83
2017-04-10T00:13:25.300Z,8.51
2017-04-10T00:14:25.045Z,9.43
2017-04-10T00:15:24.741Z,9.10
2017-04-10T00:16:24.471Z,9.01
2017-04-10T00:17:24.275Z,8.44
2017-04-10T00:18:24.292Z,8.89
2017-04-10T00:20:26.564Z,7.83
2017-04-10T00:21:26.563Z,9.04
2017-04-10T00:22:26.365Z,9.01
2017-04-10T00:23:26.364Z,9.33
2017-04-10T00:24:26.050Z,9.31
2017-04-10T00:25:25.820Z,8.26
2017-04-10T00:26:25.483Z,8.87
2017-04-10T00:27:25.175Z,9.43
2017-04-10T00:28:24.939Z,10.66
2017-04-10T00:29:24.654Z,9.50
2017-04-10T00:30:24.359Z,9.84
2017-04-10T00:31:24.093Z,9.46
2017-04-10T00:32:23.775Z,9.66
2017-04-10T00:33:23.449Z,9.51
2017-04-10T00:34:23.103Z,10.76
2017-04-10T00:35:22.850Z,11.36
2017-04-10T00:36:22.536Z,9.93
2017-04-10T00:37:22.275Z,10.30
2017-04-10T00:38:21.972Z,11.57
2017-04-10T00:39:21.722Z,10.61
2017-04-10T00:40:21.423Z,10.11
2017-04-10T00:41:21.181Z,10.11
2017-04-10T00:42:20.907Z,10.61
2017-04-10T00:43:20.590Z,9.33
2017-04-10T00:44:20.774Z,9.94
2017-04-10T00:45:20.502Z,11.06
2017-04-10T00:46:20.425Z,9.46
2017-04-10T00:47:20.197Z,10.14
2017-04-10T00:48:19.917Z,10.39
2017-04-10T00:49:19.594Z,10.19
2017-04-10T00:50:22.462Z,9.46
2017-04-10T00:51:22.115Z,11.09
2017-04-10T00:52:21.811Z,10.40
2017-04-10T00:53:21.521Z,9.47
2017-04-10T00:54:21.491Z,9.74
2017-04-10T00:55:21.192Z,11.57
2017-04-10T00:56:21.202Z,11.94
2017-04-10T00:57:20.927Z,10.87
2017-04-10T00:58:20.608Z,11.81
2017-04-10T00:59:20.313Z,11.07
2017-04-10T01:00:20.072Z,11.60
2017-04-10T01:01:19.776Z,11.90
2017-04-10T01:02:19.464Z,11.27
2017-04-10T01:03:19.168Z,12.40
2017-04-10T01:04:18.875Z,12.14
2017-04-10T01:05:18.575Z,13.36
2017-04-10T01:06:18.264Z,12.16
2017-04-10T01:07:18.166Z,12.51
2017-04-10T01:08:18.027Z,11.84
2017-04-10T01:09:17.879Z,12.21
2017-04-10T01:10:17.655Z,12.73
2017-04-10T01:11:17.444Z,12.33
2017-04-10T01:12:17.219Z,11.93
2017-04-10T01:13:17.201Z,13.81
2017-04-10T01:14:16.895Z,12.71
2017-04-10T01:15:16.638Z,12.34
2017-04-10T01:16:16.343Z,12.44
2017-04-10T01:17:16.079Z,14.40
2017-04-10T01:18:15.739Z,12.79
2017-04-10T01:19:15.433Z,12.99
2017-04-10T01:20:15.115Z,13.09
2017-04-10T01:21:14.805Z,15.00
2017-04-10T01:22:14.479Z,13.86
2017-04-10T01:23:14.253Z,12.36
2017-04-10T01:24:13.928Z,14.11
2017-04-10T01:25:13.585Z,13.90
2017-04-10T01:26:13.306Z,14.71
2017-04-10T01:27:13.074Z,13.29
2017-04-10T01:28:12.863Z,13.87
2017-04-10T01:29:12.606Z,12.99
2017-04-10T01:30:13.673Z,13.27
2017-04-10T01:31:13.372Z,15.14
2017-04-10T01:32:13.117Z,14.19
2017-04-10T01:33:12.879Z,14.11
2017-04-10T01:34:12.639Z,12.67
2017-04-10T01:35:12.311Z,14.61
2017-04-10T01:36:12.022Z,13.27
2017-04-10T01:37:11.872Z,13.93
2017-04-10T01:38:11.572Z,13.50
2017-04-10T01:39:11.265Z,13.40
2017-04-10T01:40:10.997Z,13.46
2017-04-10T01:41:10.680Z,13.19
2017-04-10T01:42:10.312Z,14.29
2017-04-10T01:43:09.994Z,12.91
2017-04-10T01:44:09.663Z,12.96
2017-04-10T01:45:09.395Z,13.94
2017-04-10T01:46:10.214Z,13.10
2017-04-10T01:47:09.956Z,12.91
2017-04-10T01:48:09.676Z,13.67
2017-04-10T01:49:09.390Z,13.89
2017-04-10T01:50:09.088Z,13.37
2017-04-10T01:51:08.891Z,12.01
2017-04-10T01:52:08.599Z,14.66
2017-04-10T01:53:08.508Z,13.93
2017-04-10T01:54:08.179Z,13.57
2017-04-10T01:55:07.876Z,14.63
2017-04-10T01:56:07.576Z,13.26
2017-04-10T01:57:07.255Z,13.23
2017-04-10T01:58:06.932Z,12.84
2017-04-10T01:59:06.656Z,13.10
2017-04-10T02:00:06.376Z,13.81
2017-04-10T02:01:06.053Z,14.07
2017-04-10T02:02:05.759Z,13.16
2017-04-10T02:03:05.508Z,13.79
2017-04-10T02:04:05.214Z,13.49
2017-04-10T02:05:04.920Z,14.37
2017-04-10T02:06:04.659Z,14.06
2017-04-10T02:07:04.367Z,12.73
2017-04-10T02:08:04.147Z,14.87
2017-04-10T02:09:03.904Z,14.26
2017-04-10T02:10:03.638Z,15.29
2017-04-10T02:11:03.362Z,14.10
2017-04-10T02:12:03.064Z,13.39
2017-04-10T02:13:02.777Z,13.17
2017-04-10T02:14:02.836Z,14.04
2017-04-10T02:15:02.597Z,12.99
2017-04-10T02:16:02.479Z,13.81
2017-04-10T02:17:02.194Z,13.83
2017-04-10T02:18:01.867Z,15.27
2017-04-10T02:19:01.540Z,13.33
2017-04-10T02:20:01.357Z,15.50
2017-04-10T02:21:01.044Z,13.11
2017-04-10T02:22:00.786Z,15.83
2017-04-10T02:23:00.450Z,15.31
2017-04-10T02:24:00.112Z,14.33
2017-04-10T02:24:59.809Z,16.10
2017-04-10T02:25:59.531Z,12.84
2017-04-10T02:26:59.262Z,14.03
2017-04-10T02:27:58.987Z,13.81
2017-04-10T02:28:58.693Z,16.39
2017-04-10T02:29:58.388Z,14.64
2017-04-10T02:30:58.053Z,14.26
2017-04-10T02:31:57.757Z,15.81
2017-04-10T02:32:57.468Z,15.24
2017-04-10T02:33:57.184Z,13.77
2017-04-10T02:34:57.027Z,15.51
2017-04-10T02:35:56.767Z,14.40
2017-04-10T02:36:56.622Z,15.64
2017-04-10T02:37:57.055Z,13.81
2017-04-10T02:38:56.780Z,15.26
2017-04-10T02:39:56.782Z,14.44
2017-04-10T02:40:56.500Z,15.96
2017-04-10T02:41:56.181Z,15.80
2017-04-10T02:42:55.864Z,16.59
2017-04-10T02:43:55.582Z,15.50
2017-04-10T02:44:55.240Z,15.68
2017-04-10T02:45:55.021Z,14.47
2017-04-10T02:46:54.657Z,15.50
2017-04-10T02:47:54.340Z,13.97
2017-04-10T02:48:54.096Z,14.57
2017-04-10T02:49:53.806Z,14.51
2017-04-10T02:50:53.518Z,14.49
2017-04-10T02:51:53.227Z,13.60
2017-04-10T02:52:52.902Z,16.54
2017-04-10T02:53:52.574Z,13.39
2017-04-10T02:54:52.279Z,15.96
2017-04-10T02:55:52.251Z,14.40
2017-04-10T02:56:51.971Z,13.03
2017-04-10T02:57:51.829Z,14.64
2017-04-10T02:58:51.530Z,14.86
2017-04-10T02:59:51.263Z,15.10
2017-04-10T03:00:50.958Z,14.04
2017-04-10T03:01:50.678Z,13.43
2017-04-10T03:02:50.363Z,14.97
2017-04-10T03:03:50.049Z,14.63
2017-04-10T03:04:49.779Z,15.37
2017-04-10T03:05:49.491Z,14.53
2017-04-10T03:06:49.183Z,15.07
2017-04-10T03:07:48.868Z,14.47
2017-04-10T03:08:48.545Z,12.46
2017-04-10T03:09:48.349Z,14.77
2017-04-10T03:10:47.994Z,13.69
2017-04-10T03:11:47.705Z,15.99
2017-04-10T03:12:47.373Z,14.71
2017-04-10T03:13:47.368Z,16.23
2017-04-10T03:14:47.085Z,14.06
2017-04-10T03:15:46.771Z,14.74
2017-04-10T03:16:46.456Z,14.83
2017-04-10T03:17:46.096Z,15.19
2017-04-10T03:18:45.903Z,14.94
2017-04-10T03:19:45.577Z,13.80
2017-04-10T03:20:45.549Z,14.97
2017-04-10T03:21:45.207Z,14.83
2017-04-10T03:22:44.853Z,15.36
2017-04-10T03:23:44.570Z,14.23
2017-04-10T03:24:44.304Z,14.73
2017-04-10T03:25:44.007Z,15.43
2017-04-10T03:26:43.785Z,14.73
2017-04-10T03:27:43.470Z,14.39
2017-04-10T03:28:43.555Z,15.43
2017-04-10T03:29:43.546Z,15.10
2017-04-10T03:30:43.793Z,14.69
2017-04-10T03:31:44.559Z,12.84
2017-04-10T03:32:44.215Z,15.54
2017-04-10T03:33:45.345Z,15.23
2017-04-10T03:34:45.006Z,14.03
2017-04-10T03:35:44.676Z,14.20
2017-04-10T03:36:45.295Z,15.33
2017-04-10T03:37:45.370Z,14.99
2017-04-10T03:38:45.049Z,13.93
2017-04-10T03:39:46.492Z,13.86
2017-04-10T03:40:46.181Z,13.34
2017-04-10T03:41:46.079Z,13.21
2017-04-10T03:42:46.079Z,13.71
2017-04-10T03:43:46.485Z,14.77
2017-04-10T03:44:46.371Z,13.31
2017-04-10T03:45:47.055Z,13.79
2017-04-10T03:46:47.524Z,14.60
2017-04-10T03:47:49.106Z,13.97
2017-04-10T03:48:49.015Z,14.70
2017-04-10T03:49:49.955Z,15.67
2017-04-10T03:50:49.757Z,15.69
2017-04-10T03:51:49.959Z,13.81
2017-04-10T03:52:51.027Z,13.49
2017-04-10T03:53:52.032Z,15.70
2017-04-10T03:54:51.849Z,13.87
2017-04-10T03:55:51.978Z,13.36
2017-04-10T03:56:52.004Z,14.26
2017-04-10T03:57:51.691Z,15.30
2017-04-10T03:58:51.958Z,13.31
2017-04-10T03:59:52.004Z,14.71
2017-04-10T04:00:52.494Z,13.30
2017-04-10T04:01:52.246Z,13.73
2017-04-10T04:02:52.527Z,14.44
2017-04-10T04:03:52.191Z,14.90
2017-04-10T04:04:52.433Z,14.79
2017-04-10T04:05:52.700Z,15.19
2017-04-10T04:06:53.080Z,16.13
2017-04-10T04:07:53.776Z,14.77
2017-04-10T04:08:55.905Z,14.01
2017-04-10T04:09:55.670Z,15.10
2017-04-10T04:10:57.841Z,14.40
2017-04-10T04:11:57.715Z,15.71
2017-04-10T04:12:57.976Z,14.43
2017-04-10T04:13:58.070Z,15.10
2017-04-10T04:14:58.520Z,14.99
2017-04-10T04:15:58.595Z,16.51
2017-04-10T04:16:58.990Z,13.93
2017-04-10T04:17:59.291Z,13.84
2017-04-10T04:18:59.232Z,13.54
2017-04-10T04:20:00.139Z,15.50
2017-04-10T04:21:00.280Z,15.81
2017-04-10T04:22:00.066Z,13.93
2017-04-10T04:23:00.132Z,15.16
2017-04-10T04:24:00.027Z,15.34
2017-04-10T04:24:59.749Z,13.67
2017-04-10T04:25:59.690Z,15.14
2017-04-10T04:27:00.134Z,15.63
2017-04-10T04:27:59.822Z,14.81
2017-04-10T04:28:59.527Z,14.99
2017-04-10T04:30:00.581Z,13.91
2017-04-10T04:31:00.287Z,14.59
2017-04-10T04:32:00.329Z,14.70
2017-04-10T04:33:01.211Z,15.03
2017-04-10T04:34:01.940Z,15.96
2017-04-10T04:35:01.661Z,15.93
2017-04-10T04:36:01.387Z,15.27
2017-04-10T04:37:02.382Z,15.71
2017-04-10T04:38:02.887Z,14.36
2017-04-10T04:39:02.637Z,14.57
2017-04-10T04:40:03.647Z,15.90
2017-04-10T04:41:04.256Z,14.39
2017-04-10T04:42:04.991Z,14.10
2017-04-10T04:43:05.392Z,14.77
2017-04-10T04:44:05.331Z,13.61
2017-04-10T04:45:06.085Z,13.99
2017-04-10T04:46:05.787Z,15.57
2017-04-10T04:47:05.507Z,15.90
2017-04-10T04:48:05.474Z,14.47
2017-04-10T04:49:05.239Z,14.66
2017-04-10T04:50:05.022Z,14.49
2017-04-10T04:51:05.939Z,15.84
2017-04-10T04:52:06.839Z,14.79
2017-04-10T04:53:07.223Z,14.70
2017-04-10T04:54:07.425Z,14.30
2017-04-10T04:55:07.121Z,14.37
2017-04-10T04:56:06.846Z,14.89
2017-04-10T04:57:06.571Z,14.64
2017-04-10T04:58:06.686Z,15.51
2017-04-10T04:59:07.808Z,13.41
2017-04-10T05:00:07.899Z,14.59
2017-04-10T05:01:08.392Z,14.53
2017-04-10T05:02:08.103Z,13.47
2017-04-10T05:03:08.053Z,14.76
2017-04-10T05:04:08.146Z,13.53
2017-04-10T05:05:08.396Z,14.30
2017-04-10T05:06:08.371Z,15.07
2017-04-10T05:07:08.278Z,15.20
2017-04-10T05:08:08.587Z,15.60
2017-04-10T05:09:08.292Z,15.74
2017-04-10T05:10:08.133Z,15.98
2017-04-10T05:11:07.814Z,15.64
2017-04-10T05:12:07.722Z,15.44
2017-04-10T05:13:07.396Z,14.33
2017-04-10T05:14:08.816Z,14.17
2017-04-10T05:15:08.513Z,14.54
2017-04-10T05:16:08.175Z,16.03
2017-04-10T05:17:07.953Z,14.39
2017-04-10T05:18:10.399Z,15.44
2017-04-10T05:19:10.068Z,14.44
2017-04-10T05:20:11.096Z,15.83
2017-04-10T05:21:11.948Z,14.59
2017-04-10T05:22:11.630Z,13.34
2017-04-10T05:23:11.431Z,13.86
2017-04-10T05:24:11.179Z,14.87
2017-04-10T05:25:10.876Z,15.94
2017-04-10T05:26:10.701Z,14.24
2017-04-10T05:27:10.466Z,13.49
2017-04-10T05:28:10.220Z,13.66
2017-04-10T05:29:09.890Z,14.00
2017-04-10T05:30:09.808Z,13.69
2017-04-10T05:31:09.503Z,14.59
2017-04-10T05:32:09.327Z,14.23
2017-04-10T05:33:09.070Z,14.96
2017-04-10T05:34:08.870Z,14.77
2017-04-10T05:35:08.613Z,14.69
2017-04-10T05:36:08.335Z,14.89
2017-04-10T05:37:08.584Z,14.56
2017-04-10T05:38:08.295Z,15.00
2017-04-10T05:39:07.983Z,14.20
2017-04-10T05:40:07.751Z,13.94
2017-04-10T05:41:07.467Z,14.36
2017-04-10T05:42:07.192Z,13.81
2017-04-10T05:43:06.875Z,16.84
2017-04-10T05:44:06.604Z,15.10
2017-04-10T05:45:06.360Z,14.83
2017-04-10T05:46:06.071Z,14.44
2017-04-10T05:47:05.747Z,13.74
2017-04-10T05:48:05.499Z,14.93
2017-04-10T05:49:05.231Z,14.56
2017-04-10T05:50:04.999Z,14.87
2017-04-10T05:51:04.836Z,14.97
2017-04-10T05:52:04.561Z,15.69
2017-04-10T05:53:04.557Z,14.80
2017-04-10T05:54:04.294Z,13.73
2017-04-10T05:55:04.062Z,14.43
2017-04-10T05:56:03.812Z,16.26
2017-04-10T05:57:03.775Z,16.06
2017-04-10T05:58:03.671Z,14.06
2017-04-10T05:59:03.407Z,15.99
2017-04-10T06:00:03.194Z,15.84
2017-04-10T06:01:03.045Z,15.60
2017-04-10T06:02:02.760Z,17.24
2017-04-10T06:03:02.976Z,15.16
2017-04-10T06:04:02.796Z,17.88
2017-04-10T06:05:02.547Z,16.77
2017-04-10T06:06:03.287Z,23.36
2017-04-10T06:07:03.082Z,18.77
2017-04-10T06:08:03.038Z,18.27
2017-04-10T06:09:03.255Z,16.39
2017-04-10T06:10:04.306Z,16.86
2017-04-10T06:11:06.060Z,17.71
2017-04-10T06:12:09.155Z,17.17
2017-04-10T06:13:11.432Z,20.47
2017-04-10T06:14:12.276Z,15.86
2017-04-10T06:15:13.134Z,15.90
2017-04-10T06:16:14.550Z,18.14
2017-04-10T06:17:14.658Z,19.77
2017-04-10T06:18:15.162Z,16.37
2017-04-10T06:19:16.067Z,17.63
2017-04-10T06:20:21.704Z,18.09
2017-04-10T06:21:22.802Z,15.93
2017-04-10T06:22:23.236Z,17.43
2017-04-10T06:23:23.364Z,16.73
2017-04-10T06:24:25.401Z,17.96
2017-04-10T06:25:26.331Z,19.47
2017-04-10T06:26:33.973Z,15.50
2017-04-10T06:27:33.898Z,15.46
2017-04-10T06:28:44.219Z,15.89
2017-04-10T06:29:45.005Z,17.31
2017-04-10T06:30:46.339Z,15.67
2017-04-10T06:31:46.733Z,16.74
2017-04-10T06:32:51.187Z,17.56
2017-04-10T06:33:51.718Z,16.86
2017-04-10T06:34:55.898Z,16.46
2017-04-10T06:35:55.648Z,18.19
2017-04-10T06:37:01.098Z,17.80
2017-04-10T06:38:01.807Z,18.73
2017-04-10T06:39:09.028Z,18.30
2017-04-10T06:40:08.911Z,15.84
2017-04-10T06:41:13.682Z,15.71
2017-04-10T06:42:13.720Z,16.44
2017-04-10T06:43:15.691Z,18.04
2017-04-10T06:44:15.953Z,15.87
2017-04-10T06:45:16.827Z,15.86
2017-04-10T06:46:17.541Z,16.03
2017-04-10T06:47:19.085Z,16.10
2017-04-10T06:48:19.686Z,16.81
2017-04-10T06:49:23.763Z,17.10
2017-04-10T06:50:23.881Z,16.59
2017-04-10T06:51:23.660Z,15.91
2017-04-10T06:52:25.878Z,15.89
2017-04-10T06:53:26.001Z,17.10
2017-04-10T06:54:25.992Z,15.80
2017-04-10T06:55:27.686Z,15.23
2017-04-10T06:56:30.777Z,15.34
2017-04-10T06:57:31.671Z,14.81
2017-04-10T06:58:31.780Z,14.84
2017-04-10T06:59:32.693Z,15.99
2017-04-10T07:00:32.911Z,16.36
2017-04-10T07:01:32.671Z,15.74
2017-04-10T07:02:33.035Z,15.63
2017-04-10T07:03:33.582Z,16.00
2017-04-10T07:04:33.576Z,17.59
2017-04-10T07:05:34.138Z,17.41
2017-04-10T07:06:33.963Z,16.94
2017-04-10T07:07:33.866Z,16.10
2017-04-10T07:08:34.834Z,17.06
2017-04-10T07:09:36.187Z,17.71
2017-04-10T07:10:36.249Z,18.76
2017-04-10T07:11:36.216Z,18.50
2017-04-10T07:12:37.105Z,17.71
2017-04-10T07:13:36.933Z,16.60
2017-04-10T07:14:38.254Z,17.86
2017-04-10T07:15:38.060Z,15.79
2017-04-10T07:16:39.540Z,17.66
2017-04-10T07:17:39.909Z,17.19
2017-04-10T07:18:42.601Z,17.77
2017-04-10T07:19:43.475Z,16.99
2017-04-10T07:20:47.660Z,17.29
2017-04-10T07:21:48.454Z,17.41
2017-04-10T07:22:56.121Z,18.16
2017-04-10T07:23:56.715Z,17.33
2017-04-10T07:25:03.575Z,17.66
2017-04-10T07:26:04.514Z,16.47
2017-04-10T07:27:04.605Z,16.11
2017-04-10T07:28:05.718Z,17.21
2017-04-10T07:29:05.939Z,15.96
2017-04-10T07:30:05.814Z,16.97
2017-04-10T07:31:15.002Z,17.01
2017-04-10T07:32:14.823Z,17.77
2017-04-10T07:33:20.279Z,17.71
2017-04-10T07:34:20.604Z,18.57
2017-04-10T07:35:22.800Z,15.87
2017-04-10T07:36:23.068Z,16.44
2017-04-10T07:37:23.561Z,17.20
2017-04-10T07:38:23.557Z,17.71
2017-04-10T07:39:23.487Z,17.26
2017-04-10T07:40:23.378Z,17.74
2017-04-10T07:41:23.164Z,17.04
2017-04-10T07:42:22.879Z,17.26
2017-04-10T07:43:22.604Z,17.09
2017-04-10T07:44:28.137Z,16.47
2017-04-10T07:45:29.297Z,15.84
2017-04-10T07:46:30.563Z,16.30
2017-04-10T07:47:30.912Z,16.80
2017-04-10T07:48:31.551Z,18.41
2017-04-10T07:49:31.378Z,17.77
2017-04-10T07:50:31.114Z,17.63
2017-04-10T07:51:30.869Z,17.54
2017-04-10T07:52:30.619Z,18.04
2017-04-10T07:53:30.575Z,18.39
2017-04-10T07:54:30.293Z,17.99
2017-04-10T07:55:30.054Z,17.50
2017-04-10T07:56:29.772Z,16.56
2017-04-10T07:57:29.499Z,18.56
2017-04-10T07:58:29.279Z,20.09
2017-04-10T07:59:29.123Z,19.06
2017-04-10T08:00:28.970Z,18.23
2017-04-10T08:01:29.837Z,19.36
2017-04-10T08:02:30.025Z,18.11
2017-04-10T08:03:29.984Z,18.76
2017-04-10T08:04:32.463Z,18.19
2017-04-10T08:05:32.247Z,17.71
2017-04-10T08:06:37.445Z,17.86
2017-04-10T08:07:40.437Z,18.66
2017-04-10T08:08:49.845Z,18.90
2017-04-10T08:09:49.644Z,18.16
2017-04-10T08:10:51.672Z,19.07
2017-04-10T08:11:51.474Z,19.80
2017-04-10T08:12:55.854Z,20.01
2017-04-10T08:13:55.601Z,19.86
2017-04-10T08:15:02.487Z,19.60
2017-04-10T08:16:02.394Z,20.03
2017-04-10T08:17:04.891Z,21.07
2017-04-10T08:18:05.155Z,19.24
2017-04-10T08:19:06.169Z,20.39
2017-04-10T08:20:06.003Z,20.30
2017-04-10T08:21:05.773Z,21.60
2017-04-10T08:22:05.540Z,20.24
2017-04-10T08:23:05.904Z,20.83
2017-04-10T08:24:05.709Z,21.23
2017-04-10T08:25:05.512Z,20.99
2017-04-10T08:26:05.409Z,21.89
2017-04-10T08:27:05.251Z,22.69
2017-04-10T08:28:05.034Z,22.69
2017-04-10T08:29:04.856Z,22.10
2017-04-10T08:30:04.734Z,22.69
2017-04-10T08:31:04.791Z,23.13
2017-04-10T08:32:04.756Z,24.24
2017-04-10T08:33:04.729Z,24.83
2017-04-10T08:34:04.732Z,25.44
2017-04-10T08:35:04.791Z,24.66
2017-04-10T08:36:04.858Z,24.49
2017-04-10T08:37:04.956Z,25.71
2017-04-10T08:38:05.168Z,24.89
2017-04-10T08:39:05.643Z,25.19
2017-04-10T08:40:07.912Z,26.24
2017-04-10T08:41:08.009Z,25.47
2017-04-10T08:42:15.441Z,27.37
2017-04-10T08:43:15.756Z,26.11
2017-04-10T08:44:15.813Z,27.33
2017-04-10T08:45:15.865Z,27.04
2017-04-10T08:46:21.804Z,26.39
2017-04-10T08:47:21.801Z,26.83
2017-04-10T08:48:22.387Z,25.69
2017-04-10T08:49:23.112Z,27.40
2017-04-10T08:50:32.608Z,26.66
2017-04-10T08:51:35.743Z,28.39
2017-04-10T08:52:38.319Z,28.61
2017-04-10T08:53:38.771Z,31.24
2017-04-10T08:54:43.001Z,29.83
2017-04-10T08:55:43.241Z,29.20
2017-04-10T08:56:51.047Z,30.54
2017-04-10T08:57:51.030Z,29.13
2017-04-10T08:58:51.159Z,30.50
2017-04-10T08:59:51.666Z,31.17
2017-04-10T09:00:52.425Z,29.87
2017-04-10T09:01:52.278Z,30.14
2017-04-10T09:02:52.630Z,29.21
2017-04-10T09:03:52.578Z,31.01
2017-04-10T09:04:52.390Z,31.24
2017-04-10T09:05:52.324Z,31.91
2017-04-10T09:06:52.149Z,32.29
2017-04-10T09:07:51.916Z,33.94
2017-04-10T09:08:51.793Z,30.79
2017-04-10T09:09:52.000Z,32.27
2017-04-10T09:10:51.954Z,31.69
2017-04-10T09:11:51.801Z,31.89
2017-04-10T09:12:51.767Z,30.69
2017-04-10T09:13:51.883Z,31.01
2017-04-10T09:14:52.027Z,29.17
2017-04-10T09:15:51.882Z,29.19
2017-04-10T09:16:51.734Z,31.01
2017-04-10T09:17:52.017Z,31.03
2017-04-10T09:18:51.832Z,31.61
2017-04-10T09:19:52.184Z,30.86
2017-04-10T09:20:52.026Z,30.41
2017-04-10T09:21:52.032Z,31.00
2017-04-10T09:22:52.057Z,30.26
2017-04-10T09:23:52.091Z,30.86
2017-04-10T09:24:52.051Z,30.84
2017-04-10T09:25:54.542Z,32.97
2017-04-10T09:26:54.486Z,32.71
2017-04-10T09:27:55.043Z,32.20
2017-04-10T09:28:55.120Z,31.07
2017-04-10T09:29:55.616Z,33.41
2017-04-10T09:30:55.576Z,32.81
2017-04-10T09:31:55.822Z,32.63
2017-04-10T09:32:56.170Z,32.44
2017-04-10T09:33:57.382Z,32.57
2017-04-10T09:34:58.864Z,33.01
2017-04-10T09:35:58.934Z,32.46
2017-04-10T09:36:59.005Z,33.30
2017-04-10T09:37:59.007Z,32.13
2017-04-10T09:38:58.911Z,30.56
2017-04-10T09:39:59.794Z,29.71
2017-04-10T09:40:59.910Z,30.80
2017-04-10T09:41:59.808Z,29.59
2017-04-10T09:43:01.038Z,31.29
2017-04-10T09:44:02.572Z,30.51
2017-04-10T09:45:02.461Z,30.29
2017-04-10T09:46:02.762Z,29.59
2017-04-10T09:47:02.990Z,31.19
2017-04-10T09:48:03.311Z,29.20
2017-04-10T09:49:03.652Z,25.71
2017-04-10T09:50:04.219Z,25.97
2017-04-10T09:51:04.203Z,25.99
2017-04-10T09:52:04.398Z,25.14
2017-04-10T09:53:04.575Z,26.74
2017-04-10T09:54:04.712Z,26.44
2017-04-10T09:55:06.454Z,27.96
2017-04-10T09:56:06.268Z,27.63
2017-04-10T09:57:06.463Z,29.04
2017-04-10T09:58:06.816Z,29.71
2017-04-10T09:59:22.894Z,29.64
2017-04-10T10:00:23.191Z,31.27
2017-04-10T10:01:23.708Z,31.24
2017-04-10T10:02:23.782Z,32.60
2017-04-10T10:03:24.732Z,33.13
2017-04-10T10:04:25.133Z,33.03
2017-04-10T10:05:25.857Z,32.51
2017-04-10T10:06:27.079Z,32.37
2017-04-10T10:07:27.580Z,31.23
2017-04-10T10:08:27.372Z,30.37
2017-04-10T10:09:28.118Z,32.50
2017-04-10T10:10:28.951Z,33.07
2017-04-10T10:11:29.028Z,29.91
2017-04-10T10:12:33.091Z,30.43
2017-04-10T10:13:32.991Z,31.84
2017-04-10T10:14:33.278Z,28.51
2017-04-10T10:15:34.300Z,30.74
2017-04-10T10:16:35.404Z,31.47
2017-04-10T10:17:35.834Z,29.59
2017-04-10T10:18:36.057Z,31.19
2017-04-10T10:19:36.566Z,31.47
2017-04-10T10:20:38.006Z,29.89
2017-04-10T10:21:40.360Z,31.89
2017-04-10T10:22:41.224Z,31.04
2017-04-10T10:56:46.382Z,25.26
2017-04-10T10:57:49.056Z,25.29
2017-04-10T10:58:54.672Z,27.70
2017-04-10T10:59:59.050Z,25.39
2017-04-10T11:01:03.315Z,26.57
2017-04-10T11:02:06.347Z,26.14
2017-04-10T11:03:11.479Z,27.41
2017-04-10T11:04:16.594Z,26.60
2017-04-10T11:05:20.297Z,25.20
2017-04-10T11:06:22.888Z,27.91
2017-04-10T11:07:25.743Z,27.71
2017-04-10T11:08:28.245Z,26.03
2017-04-10T11:09:30.351Z,28.01
2017-04-10T11:10:34.442Z,28.00
2017-04-10T11:11:37.447Z,26.61
2017-04-10T11:12:40.311Z,28.06
2017-04-10T11:13:44.158Z,27.06
2017-04-10T11:14:47.862Z,26.74
2017-04-10T11:15:51.065Z,27.43
2017-04-10T11:16:52.823Z,27.64
2017-04-10T11:17:54.446Z,27.34
2017-04-10T11:18:59.432Z,26.46
2017-04-10T11:20:02.273Z,26.73
2017-04-10T11:21:09.047Z,25.73
2017-04-10T11:22:12.476Z,25.77
2017-04-10T11:23:16.934Z,24.83
2017-04-10T11:24:19.382Z,28.20
2017-04-10T11:25:20.724Z,25.71
2017-04-10T11:26:23.112Z,25.46
2017-04-10T11:27:27.019Z,26.00
2017-04-10T11:28:30.975Z,26.37
2017-04-10T11:29:33.868Z,24.97
2017-04-10T11:30:36.480Z,25.71
2017-04-10T11:31:37.485Z,25.00
2017-04-10T11:32:40.412Z,26.07
2017-04-10T11:33:42.382Z,25.26
2017-04-10T11:34:44.696Z,25.33
2017-04-10T11:35:45.272Z,23.94
2017-04-10T11:36:49.422Z,25.26
2017-04-10T11:37:50.201Z,25.21
2017-04-10T11:38:52.237Z,25.36
2017-04-10T11:39:53.188Z,23.70
2017-04-10T11:40:54.074Z,24.10
2017-04-10T11:41:54.655Z,22.93
2017-04-10T11:42:59.475Z,22.86
2017-04-10T11:44:00.305Z,24.51
2017-04-10T11:45:00.852Z,22.19
2017-04-10T11:46:01.716Z,23.20
2017-04-10T11:47:02.261Z,23.86
2017-04-10T11:48:02.950Z,24.56
2017-04-10T11:49:04.882Z,22.49
2017-04-10T11:50:06.387Z,22.36
2017-04-10T11:51:12.168Z,21.44
2017-04-10T11:52:16.712Z,22.70
2017-04-10T11:53:18.600Z,21.30
2017-04-10T11:54:20.523Z,22.16
2017-04-10T11:55:21.684Z,21.69
2017-04-10T11:56:26.018Z,21.33
2017-04-10T11:57:27.379Z,19.91
2017-04-10T11:58:31.567Z,20.86
2017-04-10T11:59:34.431Z,22.26
2017-04-10T12:00:39.650Z,21.51
2017-04-10T12:01:42.799Z,21.37
2017-04-10T12:02:45.037Z,21.50
2017-04-10T12:03:50.236Z,21.67
2017-04-10T12:04:55.068Z,22.31
2017-04-10T12:05:56.969Z,23.14
2017-04-10T12:07:00.832Z,21.91
2017-04-10T12:08:02.769Z,22.03
2017-04-10T12:09:05.719Z,21.80
2017-04-10T12:10:08.629Z,20.96
2017-04-10T12:11:11.741Z,19.16
2017-04-10T12:12:15.600Z,21.36
2017-04-10T12:13:19.756Z,20.36
2017-04-10T12:14:23.840Z,19.64
2017-04-10T12:15:25.214Z,19.37
2017-04-10T12:16:31.648Z,21.31
2017-04-10T12:17:36.594Z,19.24
2017-04-10T12:18:39.117Z,19.06
2017-04-10T12:19:41.492Z,21.09
2017-04-10T12:20:43.539Z,21.03
2017-04-10T12:21:46.100Z,19.30
2017-04-10T12:22:48.778Z,17.80
2017-04-10T12:23:52.132Z,18.70
2017-04-10T12:24:55.705Z,19.23
2017-04-10T12:25:59.861Z,18.54
2017-04-10T12:27:05.786Z,18.30
2017-04-10T12:28:11.811Z,18.40
2017-04-10T12:29:15.345Z,19.01
2017-04-10T12:30:21.551Z,17.66
2017-04-10T12:31:23.890Z,17.79
2017-04-10T12:32:28.690Z,17.60
2017-04-10T12:33:31.500Z,18.30
2017-04-10T12:34:40.503Z,17.34
2017-04-10T12:35:45.913Z,16.56
2017-04-10T12:36:54.240Z,17.40
2017-04-10T12:37:57.421Z,16.90
2017-04-10T12:39:00.237Z,17.20
2017-04-10T12:40:03.029Z,16.19
2017-04-10T12:41:05.552Z,15.50
2017-04-10T12:42:09.604Z,16.60
2017-04-10T12:43:12.923Z,17.20
2017-04-10T12:44:14.246Z,18.54
2017-04-10T12:45:14.659Z,18.00
2017-04-10T12:46:17.397Z,19.06
2017-04-10T12:47:21.318Z,18.57
2017-04-10T12:48:22.881Z,17.31
2017-04-10T12:49:29.387Z,17.70
2017-04-10T12:50:31.775Z,17.87
2017-04-10T12:51:38.049Z,17.37
2017-04-10T12:52:44.725Z,17.87
2017-04-10T12:53:47.096Z,19.63
2017-04-10T12:54:52.703Z,19.19
2017-04-10T12:56:05.339Z,19.39
2017-04-10T12:57:06.828Z,19.64
2017-04-10T12:58:18.209Z,21.39
2017-04-10T12:59:20.287Z,21.03
2017-04-10T13:00:22.033Z,21.57
2017-04-10T13:01:25.582Z,21.80
2017-04-10T13:02:27.489Z,22.14
2017-04-10T13:03:31.099Z,20.90
2017-04-10T13:04:33.452Z,19.87
2017-04-10T13:05:38.412Z,21.13
2017-04-10T13:06:41.750Z,22.37
2017-04-10T13:07:44.914Z,22.87
2017-04-10T13:08:49.396Z,21.86
2017-04-10T13:09:58.810Z,22.50
2017-04-10T13:11:01.833Z,22.00
2017-04-10T13:12:06.529Z,20.41
2017-04-10T13:13:09.381Z,22.70
2017-04-10T13:14:14.594Z,20.74
2017-04-10T13:15:26.797Z,22.29
2017-04-10T13:16:31.448Z,20.94
2017-04-10T13:17:37.457Z,21.71
2017-04-10T13:18:42.366Z,19.43
2017-04-10T13:19:49.422Z,20.09
2017-04-10T13:20:53.484Z,21.63
2017-04-10T13:21:57.073Z,19.51
2017-04-10T13:23:04.074Z,21.69
2017-04-10T13:24:08.181Z,20.71
2017-04-10T13:25:13.826Z,20.07
2017-04-10T13:26:20.426Z,19.93
2017-04-10T13:27:29.174Z,21.03
2017-04-10T13:28:33.401Z,20.50
2017-04-10T13:29:36.732Z,20.11
2017-04-10T13:30:39.743Z,18.83
2017-04-10T13:31:45.062Z,20.59
2017-04-10T13:32:49.483Z,20.79
2017-04-10T13:33:54.995Z,21.93
2017-04-10T13:34:57.933Z,20.37
2017-04-10T13:36:01.690Z,21.19
2017-04-10T13:37:05.930Z,20.97
2017-04-10T13:38:10.943Z,18.59
2017-04-10T13:39:13.871Z,21.77
2017-04-10T13:40:18.074Z,19.84
2017-04-10T13:41:24.086Z,20.51